sensor_id;sensor_type;location;lat;lon;timestamp;temperature;humidity
64961;SHT31;51487;52.266;10.542;2024-02-15T00:00:13;11.08;98.47
64961;SHT31;51487;52.266;10.542;2024-02-15T00:02:40;11.06;98.51
64961;SHT31;51487;52.266;10.542;2024-02-15T00:05:09;11.09;98.73
64961;SHT31;51487;52.266;10.542;2024-02-15T00:07:34;11.11;98.46
64961;SHT31;51487;52.266;10.542;2024-02-15T00:10:00;11.19;98.29
64961;SHT31;51487;52.266;10.542;2024-02-15T00:12:26;11.09;98.51
64961;SHT31;51487;52.266;10.542;2024-02-15T00:14:51;11.16;98.38
64961;SHT31;51487;52.266;10.542;2024-02-15T00:17:17;11.19;98.39
64961;SHT31;51487;52.266;10.542;2024-02-15T00:19:43;11.22;98.34
64961;SHT31;51487;52.266;10.542;2024-02-15T00:22:09;11.18;98.43
64961;SHT31;51487;52.266;10.542;2024-02-15T00:24:37;11.12;98.82
64961;SHT31;51487;52.266;10.542;2024-02-15T00:27:03;11.12;98.87
64961;SHT31;51487;52.266;10.542;2024-02-15T00:29:29;11.16;98.79
64961;SHT31;51487;52.266;10.542;2024-02-15T00:31:56;11.19;98.82
64961;SHT31;51487;52.266;10.542;2024-02-15T00:34:22;11.20;98.73
64961;SHT31;51487;52.266;10.542;2024-02-15T00:36:47;11.19;98.58
64961;SHT31;51487;52.266;10.542;2024-02-15T00:39:13;11.20;98.57
64961;SHT31;51487;52.266;10.542;2024-02-15T00:41:44;11.27;98.58
64961;SHT31;51487;52.266;10.542;2024-02-15T00:44:11;11.26;98.37
64961;SHT31;51487;52.266;10.542;2024-02-15T00:46:37;11.37;98.27
64961;SHT31;51487;52.266;10.542;2024-02-15T00:49:04;11.36;98.05
64961;SHT31;51487;52.266;10.542;2024-02-15T00:51:32;11.43;98.07
64961;SHT31;51487;52.266;10.542;2024-02-15T00:54:00;11.50;97.84
64961;SHT31;51487;52.266;10.542;2024-02-15T00:56:26;11.43;97.86
64961;SHT31;51487;52.266;10.542;2024-02-15T00:58:53;11.40;98.11
64961;SHT31;51487;52.266;10.542;2024-02-15T01:01:18;11.44;98.09
64961;SHT31;51487;52.266;10.542;2024-02-15T01:03:44;11.44;97.94
64961;SHT31;51487;52.266;10.542;2024-02-15T01:06:09;11.41;98.05
64961;SHT31;51487;52.266;10.542;2024-02-15T01:08:35;11.44;98.07
64961;SHT31;51487;52.266;10.542;2024-02-15T01:11:02;11.51;98.00
64961;SHT31;51487;52.266;10.542;2024-02-15T01:13:29;11.50;97.85
64961;SHT31;51487;52.266;10.542;2024-02-15T01:15:55;11.53;97.80
64961;SHT31;51487;52.266;10.542;2024-02-15T01:18:21;11.40;98.06
64961;SHT31;51487;52.266;10.542;2024-02-15T01:20:46;11.36;98.17
64961;SHT31;51487;52.266;10.542;2024-02-15T01:23:12;11.32;98.34
64961;SHT31;51487;52.266;10.542;2024-02-15T01:25:37;11.36;98.37
64961;SHT31;51487;52.266;10.542;2024-02-15T01:28:05;11.36;98.32
64961;SHT31;51487;52.266;10.542;2024-02-15T01:30:31;11.43;98.28
64961;SHT31;51487;52.266;10.542;2024-02-15T01:32:57;11.36;98.18
64961;SHT31;51487;52.266;10.542;2024-02-15T01:35:23;11.41;97.98
64961;SHT31;51487;52.266;10.542;2024-02-15T01:37:49;11.41;98.09
64961;SHT31;51487;52.266;10.542;2024-02-15T01:40:16;11.43;98.19
64961;SHT31;51487;52.266;10.542;2024-02-15T01:42:44;11.39;98.16
64961;SHT31;51487;52.266;10.542;2024-02-15T01:45:10;11.40;98.12
64961;SHT31;51487;52.266;10.542;2024-02-15T01:47:38;11.46;98.06
64961;SHT31;51487;52.266;10.542;2024-02-15T01:50:05;11.49;97.97
64961;SHT31;51487;52.266;10.542;2024-02-15T01:52:33;11.47;98.02
64961;SHT31;51487;52.266;10.542;2024-02-15T01:55:00;11.40;98.11
64961;SHT31;51487;52.266;10.542;2024-02-15T01:57:35;11.39;98.20
64961;SHT31;51487;52.266;10.542;2024-02-15T02:00:02;11.47;98.00
64961;SHT31;51487;52.266;10.542;2024-02-15T02:02:32;11.51;98.04
64961;SHT31;51487;52.266;10.542;2024-02-15T02:04:59;11.49;97.89
64961;SHT31;51487;52.266;10.542;2024-02-15T02:07:25;11.53;97.84
64961;SHT31;51487;52.266;10.542;2024-02-15T02:09:51;11.44;98.09
64961;SHT31;51487;52.266;10.542;2024-02-15T02:12:17;11.50;97.87
64961;SHT31;51487;52.266;10.542;2024-02-15T02:14:43;11.37;98.11
64961;SHT31;51487;52.266;10.542;2024-02-15T02:17:15;11.41;98.23
64961;SHT31;51487;52.266;10.542;2024-02-15T02:19:42;11.39;98.26
64961;SHT31;51487;52.266;10.542;2024-02-15T02:22:09;11.33;98.36
64961;SHT31;51487;52.266;10.542;2024-02-15T02:24:53;11.40;98.13
64961;SHT31;51487;52.266;10.542;2024-02-15T02:27:19;11.24;98.48
64961;SHT31;51487;52.266;10.542;2024-02-15T02:29:45;11.20;98.59
64961;SHT31;51487;52.266;10.542;2024-02-15T02:32:11;11.23;98.50
64961;SHT31;51487;52.266;10.542;2024-02-15T02:34:38;11.15;98.62
64961;SHT31;51487;52.266;10.542;2024-02-15T02:37:06;11.20;98.43
64961;SHT31;51487;52.266;10.542;2024-02-15T02:39:34;11.13;98.50
64961;SHT31;51487;52.266;10.542;2024-02-15T02:42:00;11.09;98.75
64961;SHT31;51487;52.266;10.542;2024-02-15T02:44:25;11.15;98.62
64961;SHT31;51487;52.266;10.542;2024-02-15T02:46:51;11.09;98.72
64961;SHT31;51487;52.266;10.542;2024-02-15T02:49:16;11.15;98.51
64961;SHT31;51487;52.266;10.542;2024-02-15T02:51:42;11.18;98.45
64961;SHT31;51487;52.266;10.542;2024-02-15T02:54:08;11.13;98.51
64961;SHT31;51487;52.266;10.542;2024-02-15T02:56:33;11.16;98.46
64961;SHT31;51487;52.266;10.542;2024-02-15T02:58:59;11.09;98.58
64961;SHT31;51487;52.266;10.542;2024-02-15T03:01:24;11.12;98.55
64961;SHT31;51487;52.266;10.542;2024-02-15T03:03:53;11.09;98.55
64961;SHT31;51487;52.266;10.542;2024-02-15T03:06:21;11.09;98.69
64961;SHT31;51487;52.266;10.542;2024-02-15T03:08:47;11.11;98.68
64961;SHT31;51487;52.266;10.542;2024-02-15T03:11:13;11.13;98.53
64961;SHT31;51487;52.266;10.542;2024-02-15T03:13:40;11.13;98.50
64961;SHT31;51487;52.266;10.542;2024-02-15T03:16:05;11.20;98.37
64961;SHT31;51487;52.266;10.542;2024-02-15T03:18:31;11.24;98.29
64961;SHT31;51487;52.266;10.542;2024-02-15T03:20:58;11.26;98.25
64961;SHT31;51487;52.266;10.542;2024-02-15T03:23:24;11.30;97.99
64961;SHT31;51487;52.266;10.542;2024-02-15T03:25:49;11.32;98.08
64961;SHT31;51487;52.266;10.542;2024-02-15T03:28:15;11.27;97.92
64961;SHT31;51487;52.266;10.542;2024-02-15T03:30:42;11.30;98.05
64961;SHT31;51487;52.266;10.542;2024-02-15T03:33:08;11.29;98.05
64961;SHT31;51487;52.266;10.542;2024-02-15T03:35:34;11.36;98.05
64961;SHT31;51487;52.266;10.542;2024-02-15T03:38:01;11.41;97.86
64961;SHT31;51487;52.266;10.542;2024-02-15T03:40:27;11.43;97.83
64961;SHT31;51487;52.266;10.542;2024-02-15T03:42:53;11.44;97.66
64961;SHT31;51487;52.266;10.542;2024-02-15T03:45:19;11.40;97.79
64961;SHT31;51487;52.266;10.542;2024-02-15T03:47:45;11.36;97.86
64961;SHT31;51487;52.266;10.542;2024-02-15T03:50:12;11.46;97.73
64961;SHT31;51487;52.266;10.542;2024-02-15T03:52:40;11.53;97.62
64961;SHT31;51487;52.266;10.542;2024-02-15T03:55:07;11.46;97.63
64961;SHT31;51487;52.266;10.542;2024-02-15T03:57:33;11.44;97.58
64961;SHT31;51487;52.266;10.542;2024-02-15T03:59:59;11.47;97.51
64961;SHT31;51487;52.266;10.542;2024-02-15T04:02:26;11.44;97.78
64961;SHT31;51487;52.266;10.542;2024-02-15T04:04:56;11.53;97.45
64961;SHT31;51487;52.266;10.542;2024-02-15T04:07:23;11.53;97.50
64961;SHT31;51487;52.266;10.542;2024-02-15T04:09:55;11.50;97.52
64961;SHT31;51487;52.266;10.542;2024-02-15T04:12:20;11.50;97.49
64961;SHT31;51487;52.266;10.542;2024-02-15T04:14:47;11.56;97.44
64961;SHT31;51487;52.266;10.542;2024-02-15T04:17:14;11.60;97.41
64961;SHT31;51487;52.266;10.542;2024-02-15T04:19:43;11.63;97.43
64961;SHT31;51487;52.266;10.542;2024-02-15T04:22:09;11.59;97.43
64961;SHT31;51487;52.266;10.542;2024-02-15T04:24:36;11.56;97.50
64961;SHT31;51487;52.266;10.542;2024-02-15T04:27:06;11.57;97.68
64961;SHT31;51487;52.266;10.542;2024-02-15T04:29:34;11.61;97.65
64961;SHT31;51487;52.266;10.542;2024-02-15T04:32:00;11.66;97.50
64961;SHT31;51487;52.266;10.542;2024-02-15T04:34:25;11.60;97.43
64961;SHT31;51487;52.266;10.542;2024-02-15T04:36:51;11.66;97.44
64961;SHT31;51487;52.266;10.542;2024-02-15T04:39:21;11.66;97.47
64961;SHT31;51487;52.266;10.542;2024-02-15T04:41:53;11.69;97.35
64961;SHT31;51487;52.266;10.542;2024-02-15T04:44:19;11.66;97.28
64961;SHT31;51487;52.266;10.542;2024-02-15T04:46:55;11.64;97.41
64961;SHT31;51487;52.266;10.542;2024-02-15T04:49:21;11.66;97.40
64961;SHT31;51487;52.266;10.542;2024-02-15T04:51:48;11.66;97.48
64961;SHT31;51487;52.266;10.542;2024-02-15T04:54:14;11.59;97.50
64961;SHT31;51487;52.266;10.542;2024-02-15T04:56:40;11.60;97.60
64961;SHT31;51487;52.266;10.542;2024-02-15T04:59:07;11.59;97.74
64961;SHT31;51487;52.266;10.542;2024-02-15T05:01:42;11.61;97.67
64961;SHT31;51487;52.266;10.542;2024-02-15T05:04:10;11.56;97.72
64961;SHT31;51487;52.266;10.542;2024-02-15T05:06:36;11.57;97.67
64961;SHT31;51487;52.266;10.542;2024-02-15T05:09:03;11.56;97.74
64961;SHT31;51487;52.266;10.542;2024-02-15T05:11:44;11.63;97.70
64961;SHT31;51487;52.266;10.542;2024-02-15T05:14:13;11.67;97.48
64961;SHT31;51487;52.266;10.542;2024-02-15T05:16:45;11.67;97.44
64961;SHT31;51487;52.266;10.542;2024-02-15T05:19:14;11.67;97.47
64961;SHT31;51487;52.266;10.542;2024-02-15T05:21:40;11.77;97.33
64961;SHT31;51487;52.266;10.542;2024-02-15T05:24:06;11.75;97.34
64961;SHT31;51487;52.266;10.542;2024-02-15T05:26:32;11.78;97.22
64961;SHT31;51487;52.266;10.542;2024-02-15T05:28:58;11.74;97.19
64961;SHT31;51487;52.266;10.542;2024-02-15T05:31:23;11.73;97.26
64961;SHT31;51487;52.266;10.542;2024-02-15T05:33:53;11.78;97.36
64961;SHT31;51487;52.266;10.542;2024-02-15T05:36:21;11.81;97.12
64961;SHT31;51487;52.266;10.542;2024-02-15T05:38:52;11.85;97.09
64961;SHT31;51487;52.266;10.542;2024-02-15T05:41:18;11.80;97.10
64961;SHT31;51487;52.266;10.542;2024-02-15T05:43:45;11.81;97.20
64961;SHT31;51487;52.266;10.542;2024-02-15T05:46:10;11.80;97.26
64961;SHT31;51487;52.266;10.542;2024-02-15T05:48:37;11.92;97.03
64961;SHT31;51487;52.266;10.542;2024-02-15T05:51:07;11.84;97.12
64961;SHT31;51487;52.266;10.542;2024-02-15T05:53:34;11.78;97.33
64961;SHT31;51487;52.266;10.542;2024-02-15T05:56:02;11.84;97.20
64961;SHT31;51487;52.266;10.542;2024-02-15T05:58:30;11.82;97.12
64961;SHT31;51487;52.266;10.542;2024-02-15T06:00:56;11.82;97.26
64961;SHT31;51487;52.266;10.542;2024-02-15T06:03:30;11.75;97.43
64961;SHT31;51487;52.266;10.542;2024-02-15T06:05:57;11.85;97.39
64961;SHT31;51487;52.266;10.542;2024-02-15T06:08:27;11.90;97.16
64961;SHT31;51487;52.266;10.542;2024-02-15T06:10:55;11.85;97.10
64961;SHT31;51487;52.266;10.542;2024-02-15T06:13:23;11.99;97.08
64961;SHT31;51487;52.266;10.542;2024-02-15T06:15:49;11.87;97.22
64961;SHT31;51487;52.266;10.542;2024-02-15T06:20:47;11.82;97.26
64961;SHT31;51487;52.266;10.542;2024-02-15T06:23:16;11.90;97.23
64961;SHT31;51487;52.266;10.542;2024-02-15T06:25:43;11.82;97.26
64961;SHT31;51487;52.266;10.542;2024-02-15T06:28:09;11.80;97.41
64961;SHT31;51487;52.266;10.542;2024-02-15T06:31:01;11.91;97.12
64961;SHT31;51487;52.266;10.542;2024-02-15T06:33:45;11.85;97.20
64961;SHT31;51487;52.266;10.542;2024-02-15T06:36:29;11.97;97.00
64961;SHT31;51487;52.266;10.542;2024-02-15T06:39:13;11.97;96.98
64961;SHT31;51487;52.266;10.542;2024-02-15T06:41:57;12.04;96.54
64961;SHT31;51487;52.266;10.542;2024-02-15T06:44:22;11.95;96.96
64961;SHT31;51487;52.266;10.542;2024-02-15T06:46:50;11.94;96.90
64961;SHT31;51487;52.266;10.542;2024-02-15T06:49:16;11.94;96.96
64961;SHT31;51487;52.266;10.542;2024-02-15T06:51:42;11.97;96.90
64961;SHT31;51487;52.266;10.542;2024-02-15T06:54:09;11.97;96.98
64961;SHT31;51487;52.266;10.542;2024-02-15T06:56:38;11.94;96.98
64961;SHT31;51487;52.266;10.542;2024-02-15T06:59:05;11.91;97.11
64961;SHT31;51487;52.266;10.542;2024-02-15T07:01:31;11.95;96.89
64961;SHT31;51487;52.266;10.542;2024-02-15T07:03:59;11.98;97.06
64961;SHT31;51487;52.266;10.542;2024-02-15T07:06:25;11.97;97.06
64961;SHT31;51487;52.266;10.542;2024-02-15T07:08:52;12.04;96.80
64961;SHT31;51487;52.266;10.542;2024-02-15T07:11:19;12.05;96.77
64961;SHT31;51487;52.266;10.542;2024-02-15T07:13:45;12.02;96.68
64961;SHT31;51487;52.266;10.542;2024-02-15T07:16:11;12.09;96.64
64961;SHT31;51487;52.266;10.542;2024-02-15T07:18:37;12.15;96.45
64961;SHT31;51487;52.266;10.542;2024-02-15T07:21:02;12.18;96.56
64961;SHT31;51487;52.266;10.542;2024-02-15T07:23:34;12.19;96.28
64961;SHT31;51487;52.266;10.542;2024-02-15T07:25:59;12.22;96.26
64961;SHT31;51487;52.266;10.542;2024-02-15T07:28:25;12.29;96.02
64961;SHT31;51487;52.266;10.542;2024-02-15T07:30:54;12.50;95.80
64961;SHT31;51487;52.266;10.542;2024-02-15T07:33:20;12.53;95.46
64961;SHT31;51487;52.266;10.542;2024-02-15T07:35:48;12.57;95.37
64961;SHT31;51487;52.266;10.542;2024-02-15T07:38:17;12.60;95.33
64961;SHT31;51487;52.266;10.542;2024-02-15T07:40:42;12.59;95.48
64961;SHT31;51487;52.266;10.542;2024-02-15T07:43:09;12.57;95.50
64961;SHT31;51487;52.266;10.542;2024-02-15T07:45:35;12.64;95.62
64961;SHT31;51487;52.266;10.542;2024-02-15T07:48:04;12.66;95.34
64961;SHT31;51487;52.266;10.542;2024-02-15T07:50:30;12.61;95.58
64961;SHT31;51487;52.266;10.542;2024-02-15T07:52:56;12.63;95.31
64961;SHT31;51487;52.266;10.542;2024-02-15T07:55:22;12.67;95.22
64961;SHT31;51487;52.266;10.542;2024-02-15T07:57:52;12.66;95.29
64961;SHT31;51487;52.266;10.542;2024-02-15T08:00:19;12.64;95.27
64961;SHT31;51487;52.266;10.542;2024-02-15T08:02:45;12.70;95.07
64961;SHT31;51487;52.266;10.542;2024-02-15T08:05:12;12.75;95.03
64961;SHT31;51487;52.266;10.542;2024-02-15T08:07:42;12.56;95.38
64961;SHT31;51487;52.266;10.542;2024-02-15T08:10:10;12.66;95.24
64961;SHT31;51487;52.266;10.542;2024-02-15T08:12:44;12.64;95.24
64961;SHT31;51487;52.266;10.542;2024-02-15T08:15:11;12.57;95.51
64961;SHT31;51487;52.266;10.542;2024-02-15T08:17:42;12.76;95.12
64961;SHT31;51487;52.266;10.542;2024-02-15T08:20:10;12.69;95.31
64961;SHT31;51487;52.266;10.542;2024-02-15T08:22:36;12.79;95.22
64961;SHT31;51487;52.266;10.542;2024-02-15T08:25:10;12.83;94.88
64961;SHT31;51487;52.266;10.542;2024-02-15T08:27:41;12.83;94.94
64961;SHT31;51487;52.266;10.542;2024-02-15T08:30:10;12.77;94.93
64961;SHT31;51487;52.266;10.542;2024-02-15T08:32:42;12.86;94.89
64961;SHT31;51487;52.266;10.542;2024-02-15T08:35:12;12.87;94.69
64961;SHT31;51487;52.266;10.542;2024-02-15T08:37:39;12.97;94.28
64961;SHT31;51487;52.266;10.542;2024-02-15T08:40:07;13.11;94.04
64961;SHT31;51487;52.266;10.542;2024-02-15T08:42:42;13.14;93.97
64961;SHT31;51487;52.266;10.542;2024-02-15T08:45:09;13.18;93.58
64961;SHT31;51487;52.266;10.542;2024-02-15T08:47:40;13.34;93.26
64961;SHT31;51487;52.266;10.542;2024-02-15T08:50:08;13.28;93.60
64961;SHT31;51487;52.266;10.542;2024-02-15T08:52:38;13.38;93.22
64961;SHT31;51487;52.266;10.542;2024-02-15T08:55:10;13.44;93.02
64961;SHT31;51487;52.266;10.542;2024-02-15T08:57:36;13.44;92.88
64961;SHT31;51487;52.266;10.542;2024-02-15T09:00:05;13.44;92.88
64961;SHT31;51487;52.266;10.542;2024-02-15T09:02:34;13.51;92.84
64961;SHT31;51487;52.266;10.542;2024-02-15T09:05:00;13.46;93.10
64961;SHT31;51487;52.266;10.542;2024-02-15T09:07:25;13.55;92.82
64961;SHT31;51487;52.266;10.542;2024-02-15T09:09:51;13.59;92.69
64961;SHT31;51487;52.266;10.542;2024-02-15T09:12:16;13.67;92.59
64961;SHT31;51487;52.266;10.542;2024-02-15T09:14:42;13.65;92.70
64961;SHT31;51487;52.266;10.542;2024-02-15T09:17:07;13.61;92.69
64961;SHT31;51487;52.266;10.542;2024-02-15T09:19:36;13.70;92.50
64961;SHT31;51487;52.266;10.542;2024-02-15T09:22:05;13.76;92.42
64961;SHT31;51487;52.266;10.542;2024-02-15T09:24:32;13.86;92.08
64961;SHT31;51487;52.266;10.542;2024-02-15T09:27:01;13.95;91.60
64961;SHT31;51487;52.266;10.542;2024-02-15T09:29:28;14.02;91.64
64961;SHT31;51487;52.266;10.542;2024-02-15T09:31:56;14.00;91.43
64961;SHT31;51487;52.266;10.542;2024-02-15T09:34:23;14.00;91.33
64961;SHT31;51487;52.266;10.542;2024-02-15T09:36:48;14.05;91.40
64961;SHT31;51487;52.266;10.542;2024-02-15T09:39:13;14.12;91.33
64961;SHT31;51487;52.266;10.542;2024-02-15T09:41:40;14.16;91.16
64961;SHT31;51487;52.266;10.542;2024-02-15T09:44:08;14.23;90.80
64961;SHT31;51487;52.266;10.542;2024-02-15T09:46:43;14.30;90.90
64961;SHT31;51487;52.266;10.542;2024-02-15T09:49:12;14.18;90.76
64961;SHT31;51487;52.266;10.542;2024-02-15T09:51:40;14.33;90.37
64961;SHT31;51487;52.266;10.542;2024-02-15T09:54:06;14.34;90.48
64961;SHT31;51487;52.266;10.542;2024-02-15T09:56:35;14.44;90.02
64961;SHT31;51487;52.266;10.542;2024-02-15T09:59:01;14.44;89.85
64961;SHT31;51487;52.266;10.542;2024-02-15T10:01:31;14.52;89.63
64961;SHT31;51487;52.266;10.542;2024-02-15T10:03:58;14.57;89.94
64961;SHT31;51487;52.266;10.542;2024-02-15T10:06:25;14.42;89.58
64961;SHT31;51487;52.266;10.542;2024-02-15T10:08:52;14.51;89.56
64961;SHT31;51487;52.266;10.542;2024-02-15T10:11:18;14.47;89.45
64961;SHT31;51487;52.266;10.542;2024-02-15T10:13:45;14.63;89.59
64961;SHT31;51487;52.266;10.542;2024-02-15T10:16:19;14.69;89.32
64961;SHT31;51487;52.266;10.542;2024-02-15T10:18:46;14.81;89.19
64961;SHT31;51487;52.266;10.542;2024-02-15T10:21:27;14.71;88.35
64961;SHT31;51487;52.266;10.542;2024-02-15T10:24:08;14.86;88.45
64961;SHT31;51487;52.266;10.542;2024-02-15T10:26:36;14.92;88.24
64961;SHT31;51487;52.266;10.542;2024-02-15T10:29:11;14.96;88.06
64961;SHT31;51487;52.266;10.542;2024-02-15T10:31:38;14.86;88.68
64961;SHT31;51487;52.266;10.542;2024-02-15T10:34:07;15.00;88.32
64961;SHT31;51487;52.266;10.542;2024-02-15T10:36:34;15.07;87.80
64961;SHT31;51487;52.266;10.542;2024-02-15T10:39:13;15.09;87.89
64961;SHT31;51487;52.266;10.542;2024-02-15T10:41:47;15.00;88.04
64961;SHT31;51487;52.266;10.542;2024-02-15T10:44:21;15.07;87.95
64961;SHT31;51487;52.266;10.542;2024-02-15T10:46:53;15.18;87.33
64961;SHT31;51487;52.266;10.542;2024-02-15T10:49:24;15.13;87.26
64961;SHT31;51487;52.266;10.542;2024-02-15T10:51:58;15.12;87.89
64961;SHT31;51487;52.266;10.542;2024-02-15T10:57:05;15.18;87.61
64961;SHT31;51487;52.266;10.542;2024-02-15T10:59:38;15.00;87.13
64961;SHT31;51487;52.266;10.542;2024-02-15T11:02:30;14.98;87.64
64961;SHT31;51487;52.266;10.542;2024-02-15T11:05:08;14.86;88.04
64961;SHT31;51487;52.266;10.542;2024-02-15T11:07:37;14.68;88.20
64961;SHT31;51487;52.266;10.542;2024-02-15T11:10:08;14.65;88.09
64961;SHT31;51487;52.266;10.542;2024-02-15T11:12:37;14.75;88.15
64961;SHT31;51487;52.266;10.542;2024-02-15T11:15:03;14.75;88.14
64961;SHT31;51487;52.266;10.542;2024-02-15T11:17:45;14.68;87.78
64961;SHT31;51487;52.266;10.542;2024-02-15T11:22:59;14.68;88.49
64961;SHT31;51487;52.266;10.542;2024-02-15T11:25:38;14.60;88.59
64961;SHT31;51487;52.266;10.542;2024-02-15T11:30:55;14.27;89.41
64961;SHT31;51487;52.266;10.542;2024-02-15T11:33:34;14.44;89.67
64961;SHT31;51487;52.266;10.542;2024-02-15T11:36:09;14.37;89.41
64961;SHT31;51487;52.266;10.542;2024-02-15T11:38:35;14.33;89.83
64961;SHT31;51487;52.266;10.542;2024-02-15T11:41:04;14.35;89.77
64961;SHT31;51487;52.266;10.542;2024-02-15T11:46:18;14.37;90.17
64961;SHT31;51487;52.266;10.542;2024-02-15T11:48:50;14.20;90.82
64961;SHT31;51487;52.266;10.542;2024-02-15T11:51:35;14.23;90.99
64961;SHT31;51487;52.266;10.542;2024-02-15T11:59:10;14.41;91.13
64961;SHT31;51487;52.266;10.542;2024-02-15T12:01:58;14.44;91.18
64961;SHT31;51487;52.266;10.542;2024-02-15T12:04:43;14.52;91.30
64961;SHT31;51487;52.266;10.542;2024-02-15T12:07:28;14.61;91.09
64961;SHT31;51487;52.266;10.542;2024-02-15T12:10:17;14.48;91.08
64961;SHT31;51487;52.266;10.542;2024-02-15T12:13:01;14.55;90.96
64961;SHT31;51487;52.266;10.542;2024-02-15T12:15:59;14.52;91.17
64961;SHT31;51487;52.266;10.542;2024-02-15T12:18:44;14.41;91.28
64961;SHT31;51487;52.266;10.542;2024-02-15T12:21:18;14.35;91.43
64961;SHT31;51487;52.266;10.542;2024-02-15T12:23:46;14.10;92.64
64961;SHT31;51487;52.266;10.542;2024-02-15T12:26:12;14.14;92.82
64961;SHT31;51487;52.266;10.542;2024-02-15T12:28:41;14.12;93.04
64961;SHT31;51487;52.266;10.542;2024-02-15T12:31:09;14.07;93.10
64961;SHT31;51487;52.266;10.542;2024-02-15T12:33:35;14.06;93.53
64961;SHT31;51487;52.266;10.542;2024-02-15T12:36:07;14.07;93.60
64961;SHT31;51487;52.266;10.542;2024-02-15T12:38:34;13.99;93.42
64961;SHT31;51487;52.266;10.542;2024-02-15T12:41:04;14.06;93.40
64961;SHT31;51487;52.266;10.542;2024-02-15T12:43:42;14.16;93.23
64961;SHT31;51487;52.266;10.542;2024-02-15T12:46:08;14.18;93.32
64961;SHT31;51487;52.266;10.542;2024-02-15T12:48:33;14.23;92.88
64961;SHT31;51487;52.266;10.542;2024-02-15T12:51:13;14.28;92.64
64961;SHT31;51487;52.266;10.542;2024-02-15T12:53:40;14.34;92.27
64961;SHT31;51487;52.266;10.542;2024-02-15T12:56:07;14.45;92.11
64961;SHT31;51487;52.266;10.542;2024-02-15T12:58:35;14.45;91.78
64961;SHT31;51487;52.266;10.542;2024-02-15T13:01:01;14.47;91.63
64961;SHT31;51487;52.266;10.542;2024-02-15T13:03:27;14.41;91.48
64961;SHT31;51487;52.266;10.542;2024-02-15T13:05:53;14.31;91.87
64961;SHT31;51487;52.266;10.542;2024-02-15T13:08:18;14.35;92.02
64961;SHT31;51487;52.266;10.542;2024-02-15T13:10:46;14.30;91.96
64961;SHT31;51487;52.266;10.542;2024-02-15T13:13:13;14.33;91.58
64961;SHT31;51487;52.266;10.542;2024-02-15T13:15:42;14.28;91.20
64961;SHT31;51487;52.266;10.542;2024-02-15T13:18:09;14.28;91.52
64961;SHT31;51487;52.266;10.542;2024-02-15T13:20:36;14.24;91.82
64961;SHT31;51487;52.266;10.542;2024-02-15T13:25:43;14.18;91.52
64961;SHT31;51487;52.266;10.542;2024-02-15T13:28:09;14.20;91.69
64961;SHT31;51487;52.266;10.542;2024-02-15T13:30:38;14.16;92.00
64961;SHT31;51487;52.266;10.542;2024-02-15T13:33:05;14.23;91.92
64961;SHT31;51487;52.266;10.542;2024-02-15T13:35:32;14.20;91.98
64961;SHT31;51487;52.266;10.542;2024-02-15T13:37:58;14.26;91.58
64961;SHT31;51487;52.266;10.542;2024-02-15T13:40:25;14.09;91.25
64961;SHT31;51487;52.266;10.542;2024-02-15T13:42:55;14.23;91.50
64961;SHT31;51487;52.266;10.542;2024-02-15T13:45:43;14.24;91.63
64961;SHT31;51487;52.266;10.542;2024-02-15T13:48:11;14.24;91.25
64961;SHT31;51487;52.266;10.542;2024-02-15T13:50:40;14.20;91.01
64961;SHT31;51487;52.266;10.542;2024-02-15T13:53:06;14.13;91.47
64961;SHT31;51487;52.266;10.542;2024-02-15T13:55:32;14.26;90.96
64961;SHT31;51487;52.266;10.542;2024-02-15T13:57:57;14.20;91.65
64961;SHT31;51487;52.266;10.542;2024-02-15T14:00:24;14.21;91.81
64961;SHT31;51487;52.266;10.542;2024-02-15T14:03:00;14.34;91.42
64961;SHT31;51487;52.266;10.542;2024-02-15T14:05:28;14.28;91.43
64961;SHT31;51487;52.266;10.542;2024-02-15T14:08:04;14.21;91.08
64961;SHT31;51487;52.266;10.542;2024-02-15T14:10:40;14.26;90.91
64961;SHT31;51487;52.266;10.542;2024-02-15T14:13:06;14.35;90.87
64961;SHT31;51487;52.266;10.542;2024-02-15T14:15:34;14.37;90.58
64961;SHT31;51487;52.266;10.542;2024-02-15T14:20:29;14.40;90.01
64961;SHT31;51487;52.266;10.542;2024-02-15T14:22:55;14.42;90.00
64961;SHT31;51487;52.266;10.542;2024-02-15T14:25:24;14.41;89.95
64961;SHT31;51487;52.266;10.542;2024-02-15T14:27:56;14.40;90.23
64961;SHT31;51487;52.266;10.542;2024-02-15T14:30:22;14.41;90.07
64961;SHT31;51487;52.266;10.542;2024-02-15T14:33:06;14.44;89.95
64961;SHT31;51487;52.266;10.542;2024-02-15T14:35:38;15.36;91.66
64961;SHT31;51487;52.266;10.542;2024-02-15T14:38:08;15.33;87.52
64961;SHT31;51487;52.266;10.542;2024-02-15T14:40:41;15.22;87.39
64961;SHT31;51487;52.266;10.542;2024-02-15T14:43:08;15.20;87.63
64961;SHT31;51487;52.266;10.542;2024-02-15T14:45:39;15.05;88.41
64961;SHT31;51487;52.266;10.542;2024-02-15T14:48:08;15.05;88.50
64961;SHT31;51487;52.266;10.542;2024-02-15T14:50:36;14.95;88.74
64961;SHT31;51487;52.266;10.542;2024-02-15T14:53:02;14.85;88.95
64961;SHT31;51487;52.266;10.542;2024-02-15T14:55:27;14.81;89.46
64961;SHT31;51487;52.266;10.542;2024-02-15T14:57:57;14.79;89.34
64961;SHT31;51487;52.266;10.542;2024-02-15T15:00:26;14.69;89.00
64961;SHT31;51487;52.266;10.542;2024-02-15T15:02:53;14.68;88.70
64961;SHT31;51487;52.266;10.542;2024-02-15T15:05:22;14.57;89.28
64961;SHT31;51487;52.266;10.542;2024-02-15T15:08:06;14.58;88.91
64961;SHT31;51487;52.266;10.542;2024-02-15T15:10:50;14.52;89.07
64961;SHT31;51487;52.266;10.542;2024-02-15T15:13:35;14.51;89.03
64961;SHT31;51487;52.266;10.542;2024-02-15T15:16:02;14.45;89.98
64961;SHT31;51487;52.266;10.542;2024-02-15T15:18:29;14.30;89.96
64961;SHT31;51487;52.266;10.542;2024-02-15T15:20:57;14.33;89.80
64961;SHT31;51487;52.266;10.542;2024-02-15T15:23:22;14.28;89.93
64961;SHT31;51487;52.266;10.542;2024-02-15T15:25:48;14.34;89.77
64961;SHT31;51487;52.266;10.542;2024-02-15T15:28:13;14.31;89.55
64961;SHT31;51487;52.266;10.542;2024-02-15T15:30:39;14.35;89.54
64961;SHT31;51487;52.266;10.542;2024-02-15T15:33:05;14.28;89.77
64961;SHT31;51487;52.266;10.542;2024-02-15T15:35:32;14.23;89.55
64961;SHT31;51487;52.266;10.542;2024-02-15T15:38:00;14.13;90.14
64961;SHT31;51487;52.266;10.542;2024-02-15T15:40:26;14.10;90.12
64961;SHT31;51487;52.266;10.542;2024-02-15T15:42:52;14.09;90.14
64961;SHT31;51487;52.266;10.542;2024-02-15T15:45:18;14.03;90.04
64961;SHT31;51487;52.266;10.542;2024-02-15T15:47:44;13.95;90.17